sensor_id;sensor_type;location;lat;lon;timestamp;pressure;altitude;pressure_sealevel;temperature;humidity
27144;BME280;14672;50.250;8.312;2023-04-25T00:00:03;98144.72;;;12.59;62.88
27144;BME280;14672;50.250;8.312;2023-04-25T00:02:33;98153.19;;;12.68;62.37
27144;BME280;14672;50.250;8.312;2023-04-25T00:05:01;98154.34;;;12.62;61.64
27144;BME280;14672;50.250;8.312;2023-04-25T00:07:28;98153.00;;;12.57;61.27
27144;BME280;14672;50.250;8.312;2023-04-25T00:09:54;98156.31;;;12.56;60.83
27144;BME280;14672;50.250;8.312;2023-04-25T00:12:20;98151.81;;;12.49;61.01
27144;BME280;14672;50.250;8.312;2023-04-25T00:14:48;98160.53;;;12.46;61.72
27144;BME280;14672;50.250;8.312;2023-04-25T00:17:16;98157.78;;;12.51;62.21
27144;BME280;14672;50.250;8.312;2023-04-25T00:19:44;98155.59;;;12.46;62.06
27144;BME280;14672;50.250;8.312;2023-04-25T00:22:12;98148.63;;;12.47;61.95
27144;BME280;14672;50.250;8.312;2023-04-25T00:24:38;98155.81;;;12.43;62.07
27144;BME280;14672;50.250;8.312;2023-04-25T00:27:04;98156.88;;;12.31;62.19
27144;BME280;14672;50.250;8.312;2023-04-25T00:29:30;98156.50;;;12.38;61.86
27144;BME280;14672;50.250;8.312;2023-04-25T00:31:56;98161.88;;;12.36;62.32
27144;BME280;14672;50.250;8.312;2023-04-25T00:34:21;98155.91;;;12.34;62.25
27144;BME280;14672;50.250;8.312;2023-04-25T00:36:47;98152.47;;;12.30;63.13
27144;BME280;14672;50.250;8.312;2023-04-25T00:39:13;98159.63;;;12.40;62.74
27144;BME280;14672;50.250;8.312;2023-04-25T00:41:39;98160.03;;;12.33;62.71
27144;BME280;14672;50.250;8.312;2023-04-25T00:44:05;98155.91;;;12.34;62.23
27144;BME280;14672;50.250;8.312;2023-04-25T00:46:33;98157.47;;;12.35;62.48
27144;BME280;14672;50.250;8.312;2023-04-25T00:48:59;98154.59;;;12.35;62.81
27144;BME280;14672;50.250;8.312;2023-04-25T00:51:25;98148.31;;;12.31;63.09
27144;BME280;14672;50.250;8.312;2023-04-25T00:53:52;98150.38;;;12.30;62.13
27144;BME280;14672;50.250;8.312;2023-04-25T00:56:18;98141.81;;;12.30;62.80
27144;BME280;14672;50.250;8.312;2023-04-25T00:58:45;98152.56;;;12.35;62.32
27144;BME280;14672;50.250;8.312;2023-04-25T01:01:12;98144.19;;;12.32;62.52
27144;BME280;14672;50.250;8.312;2023-04-25T01:03:39;98140.56;;;12.31;62.23
27144;BME280;14672;50.250;8.312;2023-04-25T01:06:09;98139.78;;;12.31;63.19
27144;BME280;14672;50.250;8.312;2023-04-25T01:08:37;98142.63;;;12.31;63.80
27144;BME280;14672;50.250;8.312;2023-04-25T01:11:04;98140.09;;;12.33;63.10
27144;BME280;14672;50.250;8.312;2023-04-25T01:13:30;98147.66;;;12.36;63.18
27144;BME280;14672;50.250;8.312;2023-04-25T01:15:58;98141.53;;;12.28;62.96
27144;BME280;14672;50.250;8.312;2023-04-25T01:18:24;98139.97;;;12.27;62.86
27144;BME280;14672;50.250;8.312;2023-04-25T01:20:54;98133.13;;;12.34;62.71
27144;BME280;14672;50.250;8.312;2023-04-25T01:23:22;98138.97;;;12.30;63.01
27144;BME280;14672;50.250;8.312;2023-04-25T01:25:49;98129.16;;;12.31;62.57
27144;BME280;14672;50.250;8.312;2023-04-25T01:28:15;98125.25;;;12.29;62.97
27144;BME280;14672;50.250;8.312;2023-04-25T01:30:42;98130.44;;;12.30;62.81
27144;BME280;14672;50.250;8.312;2023-04-25T01:33:09;98136.03;;;12.24;63.39
27144;BME280;14672;50.250;8.312;2023-04-25T01:35:34;98127.78;;;12.27;63.39
27144;BME280;14672;50.250;8.312;2023-04-25T01:38:01;98140.94;;;12.24;63.03
27144;BME280;14672;50.250;8.312;2023-04-25T01:40:27;98138.78;;;12.19;63.17
27144;BME280;14672;50.250;8.312;2023-04-25T01:42:54;98136.72;;;12.19;63.29
27144;BME280;14672;50.250;8.312;2023-04-25T01:45:20;98140.53;;;12.16;63.43
27144;BME280;14672;50.250;8.312;2023-04-25T01:47:46;98146.84;;;12.20;63.25
27144;BME280;14672;50.250;8.312;2023-04-25T01:50:18;98138.88;;;12.24;63.17
27144;BME280;14672;50.250;8.312;2023-04-25T01:52:44;98141.44;;;12.22;63.21
27144;BME280;14672;50.250;8.312;2023-04-25T01:55:10;98145.75;;;12.18;63.15
27144;BME280;14672;50.250;8.312;2023-04-25T01:57:35;98144.84;;;12.12;63.89
27144;BME280;14672;50.250;8.312;2023-04-25T02:00:06;98142.78;;;12.12;64.13
27144;BME280;14672;50.250;8.312;2023-04-25T02:02:32;98145.16;;;12.14;63.40
27144;BME280;14672;50.250;8.312;2023-04-25T02:04:58;98148.97;;;12.11;63.38
27144;BME280;14672;50.250;8.312;2023-04-25T02:07:26;98146.63;;;12.09;62.43
27144;BME280;14672;50.250;8.312;2023-04-25T02:09:52;98148.78;;;12.14;62.67
27144;BME280;14672;50.250;8.312;2023-04-25T02:12:17;98148.16;;;12.10;62.94
27144;BME280;14672;50.250;8.312;2023-04-25T02:14:43;98153.78;;;12.05;62.76
27144;BME280;14672;50.250;8.312;2023-04-25T02:17:09;98145.16;;;12.14;62.27
27144;BME280;14672;50.250;8.312;2023-04-25T02:19:35;98140.63;;;12.07;62.74
27144;BME280;14672;50.250;8.312;2023-04-25T02:22:01;98140.31;;;12.05;62.42
27144;BME280;14672;50.250;8.312;2023-04-25T02:24:27;98142.38;;;12.05;62.31
27144;BME280;14672;50.250;8.312;2023-04-25T02:26:53;98148.25;;;12.01;62.39
27144;BME280;14672;50.250;8.312;2023-04-25T02:29:23;98146.03;;;12.05;62.12
27144;BME280;14672;50.250;8.312;2023-04-25T02:31:50;98146.50;;;11.80;62.33
27144;BME280;14672;50.250;8.312;2023-04-25T02:34:16;98148.31;;;11.92;62.21
27144;BME280;14672;50.250;8.312;2023-04-25T02:36:41;98137.72;;;11.93;61.35
27144;BME280;14672;50.250;8.312;2023-04-25T02:39:07;98144.22;;;11.93;61.00
27144;BME280;14672;50.250;8.312;2023-04-25T02:41:33;98142.59;;;11.77;60.88
27144;BME280;14672;50.250;8.312;2023-04-25T02:43:59;98152.19;;;11.80;60.58
27144;BME280;14672;50.250;8.312;2023-04-25T02:46:24;98154.16;;;11.74;60.47
27144;BME280;14672;50.250;8.312;2023-04-25T02:48:50;98149.28;;;11.65;61.04
27144;BME280;14672;50.250;8.312;2023-04-25T02:51:16;98135.34;;;11.67;60.74
27144;BME280;14672;50.250;8.312;2023-04-25T02:53:42;98138.19;;;11.67;60.37
27144;BME280;14672;50.250;8.312;2023-04-25T02:56:08;98136.59;;;11.66;60.11
27144;BME280;14672;50.250;8.312;2023-04-25T02:58:33;98135.16;;;11.71;59.77
27144;BME280;14672;50.250;8.312;2023-04-25T03:00:59;98142.19;;;11.61;60.03
27144;BME280;14672;50.250;8.312;2023-04-25T03:03:26;98143.22;;;11.49;60.38
27144;BME280;14672;50.250;8.312;2023-04-25T03:05:51;98152.09;;;11.42;60.59
27144;BME280;14672;50.250;8.312;2023-04-25T03:08:18;98145.81;;;11.38;60.92
27144;BME280;14672;50.250;8.312;2023-04-25T03:10:45;98158.81;;;11.20;60.88
27144;BME280;14672;50.250;8.312;2023-04-25T03:13:11;98158.78;;;11.29;60.79
27144;BME280;14672;50.250;8.312;2023-04-25T03:15:37;98157.25;;;11.19;60.99
27144;BME280;14672;50.250;8.312;2023-04-25T03:18:03;98161.22;;;11.13;60.50
27144;BME280;14672;50.250;8.312;2023-04-25T03:20:29;98163.47;;;11.00;61.26
27144;BME280;14672;50.250;8.312;2023-04-25T03:22:56;98160.78;;;11.05;61.12
27144;BME280;14672;50.250;8.312;2023-04-25T03:25:21;98157.97;;;10.96;61.01
27144;BME280;14672;50.250;8.312;2023-04-25T03:27:47;98160.53;;;10.94;60.94
27144;BME280;14672;50.250;8.312;2023-04-25T03:30:13;98165.13;;;10.82;61.52
27144;BME280;14672;50.250;8.312;2023-04-25T03:32:39;98161.97;;;10.80;61.53
27144;BME280;14672;50.250;8.312;2023-04-25T03:35:05;98165.59;;;10.81;61.01
27144;BME280;14672;50.250;8.312;2023-04-25T03:37:31;98171.94;;;10.76;61.32
27144;BME280;14672;50.250;8.312;2023-04-25T03:39:57;98169.72;;;10.71;61.69
27144;BME280;14672;50.250;8.312;2023-04-25T03:42:22;98179.34;;;10.73;61.79
27144;BME280;14672;50.250;8.312;2023-04-25T03:44:49;98182.66;;;10.72;61.71
27144;BME280;14672;50.250;8.312;2023-04-25T03:47:15;98177.78;;;10.63;61.80
27144;BME280;14672;50.250;8.312;2023-04-25T03:49:41;98189.47;;;10.56;61.93
27144;BME280;14672;50.250;8.312;2023-04-25T03:52:07;98177.94;;;10.60;61.94
27144;BME280;14672;50.250;8.312;2023-04-25T03:54:33;98186.81;;;10.62;61.61
27144;BME280;14672;50.250;8.312;2023-04-25T03:56:59;98183.97;;;10.62;62.00
27144;BME280;14672;50.250;8.312;2023-04-25T03:59:25;98168.50;;;10.63;61.55
27144;BME280;14672;50.250;8.312;2023-04-25T04:01:52;98171.81;;;10.61;62.18
27144;BME280;14672;50.250;8.312;2023-04-25T04:04:18;98179.88;;;10.63;62.54
27144;BME280;14672;50.250;8.312;2023-04-25T04:06:44;98176.88;;;10.57;62.21
27144;BME280;14672;50.250;8.312;2023-04-25T04:09:10;98178.28;;;10.62;62.36
27144;BME280;14672;50.250;8.312;2023-04-25T04:11:39;98177.78;;;10.63;62.70
27144;BME280;14672;50.250;8.312;2023-04-25T04:14:06;98186.00;;;10.61;62.11
27144;BME280;14672;50.250;8.312;2023-04-25T04:16:32;98186.97;;;10.58;62.37
27144;BME280;14672;50.250;8.312;2023-04-25T04:18:58;98185.22;;;10.52;62.75
27144;BME280;14672;50.250;8.312;2023-04-25T04:21:24;98183.16;;;10.52;62.15
27144;BME280;14672;50.250;8.312;2023-04-25T04:23:50;98191.69;;;10.43;62.19
27144;BME280;14672;50.250;8.312;2023-04-25T04:26:16;98188.22;;;10.39;61.89
27144;BME280;14672;50.250;8.312;2023-04-25T04:28:43;98186.34;;;10.36;61.91
27144;BME280;14672;50.250;8.312;2023-04-25T04:31:10;98205.41;;;10.35;61.69
27144;BME280;14672;50.250;8.312;2023-04-25T04:33:36;98203.69;;;10.29;62.17
27144;BME280;14672;50.250;8.312;2023-04-25T04:36:03;98211.09;;;10.17;61.09
27144;BME280;14672;50.250;8.312;2023-04-25T04:38:29;98213.16;;;10.26;61.34
27144;BME280;14672;50.250;8.312;2023-04-25T04:40:56;98216.47;;;10.24;61.65
27144;BME280;14672;50.250;8.312;2023-04-25T04:43:21;98214.59;;;10.30;61.35
27144;BME280;14672;50.250;8.312;2023-04-25T04:45:48;98222.63;;;10.32;61.10
27144;BME280;14672;50.250;8.312;2023-04-25T04:48:16;98220.25;;;10.21;61.42
27144;BME280;14672;50.250;8.312;2023-04-25T04:50:45;98231.63;;;10.30;61.60
27144;BME280;14672;50.250;8.312;2023-04-25T04:53:11;98230.19;;;10.26;61.70
27144;BME280;14672;50.250;8.312;2023-04-25T04:55:37;98231.13;;;10.32;61.57
27144;BME280;14672;50.250;8.312;2023-04-25T04:58:03;98235.09;;;10.34;61.21
27144;BME280;14672;50.250;8.312;2023-04-25T05:00:29;98238.56;;;10.29;61.68
27144;BME280;14672;50.250;8.312;2023-04-25T05:02:56;98237.31;;;10.30;61.85
27144;BME280;14672;50.250;8.312;2023-04-25T05:05:22;98241.72;;;10.22;62.29
27144;BME280;14672;50.250;8.312;2023-04-25T05:07:47;98232.22;;;10.16;62.80
27144;BME280;14672;50.250;8.312;2023-04-25T05:10:13;98236.97;;;10.19;62.66
27144;BME280;14672;50.250;8.312;2023-04-25T05:12:39;98239.94;;;10.16;63.08
27144;BME280;14672;50.250;8.312;2023-04-25T05:15:05;98233.31;;;10.10;63.08
27144;BME280;14672;50.250;8.312;2023-04-25T05:17:31;98242.00;;;10.15;63.48
27144;BME280;14672;50.250;8.312;2023-04-25T05:19:58;98241.25;;;10.15;62.83
27144;BME280;14672;50.250;8.312;2023-04-25T05:22:24;98251.47;;;10.21;63.07
27144;BME280;14672;50.250;8.312;2023-04-25T05:24:50;98250.88;;;10.26;62.57
27144;BME280;14672;50.250;8.312;2023-04-25T05:27:18;98250.53;;;10.24;62.57
27144;BME280;14672;50.250;8.312;2023-04-25T05:29:44;98258.41;;;10.20;62.56
27144;BME280;14672;50.250;8.312;2023-04-25T05:32:10;98260.78;;;10.22;62.58
27144;BME280;14672;50.250;8.312;2023-04-25T05:34:36;98265.69;;;10.30;62.65
27144;BME280;14672;50.250;8.312;2023-04-25T05:37:02;98255.25;;;10.27;62.60
27144;BME280;14672;50.250;8.312;2023-04-25T05:39:29;98260.19;;;10.27;62.66
27144;BME280;14672;50.250;8.312;2023-04-25T05:41:55;98247.06;;;10.29;63.05
27144;BME280;14672;50.250;8.312;2023-04-25T05:44:21;98252.41;;;10.27;63.16
27144;BME280;14672;50.250;8.312;2023-04-25T05:46:46;98250.53;;;10.24;63.03
27144;BME280;14672;50.250;8.312;2023-04-25T05:49:13;98250.88;;;10.26;63.61
27144;BME280;14672;50.250;8.312;2023-04-25T05:51:38;98244.84;;;10.24;63.12
27144;BME280;14672;50.250;8.312;2023-04-25T05:54:04;98247.06;;;10.29;62.96
27144;BME280;14672;50.250;8.312;2023-04-25T05:56:30;98249.28;;;10.34;63.28
27144;BME280;14672;50.250;8.312;2023-04-25T05:58:56;98251.63;;;10.36;63.43
27144;BME280;14672;50.250;8.312;2023-04-25T06:01:23;98257.78;;;10.44;62.74
27144;BME280;14672;50.250;8.312;2023-04-25T06:03:49;98251.03;;;10.50;62.78
27144;BME280;14672;50.250;8.312;2023-04-25T06:06:15;98256.53;;;10.54;62.24
27144;BME280;14672;50.250;8.312;2023-04-25T06:08:41;98259.53;;;10.59;61.76
27144;BME280;14672;50.250;8.312;2023-04-25T06:11:07;98252.75;;;10.66;61.36
27144;BME280;14672;50.250;8.312;2023-04-25T06:13:33;98254.81;;;10.74;61.66
27144;BME280;14672;50.250;8.312;2023-04-25T06:15:58;98255.44;;;10.78;61.98
27144;BME280;14672;50.250;8.312;2023-04-25T06:18:24;98261.41;;;10.90;61.04
27144;BME280;14672;50.250;8.312;2023-04-25T06:20:50;98264.38;;;10.95;60.68
27144;BME280;14672;50.250;8.312;2023-04-25T06:23:16;98258.41;;;10.93;60.65
27144;BME280;14672;50.250;8.312;2023-04-25T06:25:42;98262.31;;;11.05;60.56
27144;BME280;14672;50.250;8.312;2023-04-25T06:28:07;98264.38;;;11.04;60.67
27144;BME280;14672;50.250;8.312;2023-04-25T06:30:33;98265.63;;;11.12;59.94
27144;BME280;14672;50.250;8.312;2023-04-25T06:32:59;98267.84;;;11.08;59.86
27144;BME280;14672;50.250;8.312;2023-04-25T06:35:25;98262.16;;;10.99;60.60
27144;BME280;14672;50.250;8.312;2023-04-25T06:37:50;98271.66;;;11.05;60.47
27144;BME280;14672;50.250;8.312;2023-04-25T06:40:16;98278.25;;;11.11;60.36
27144;BME280;14672;50.250;8.312;2023-04-25T06:42:43;98275.41;;;11.11;60.92
27144;BME280;14672;50.250;8.312;2023-04-25T06:45:09;98273.00;;;11.28;60.38
27144;BME280;14672;50.250;8.312;2023-04-25T06:47:35;98282.50;;;11.25;60.41
27144;BME280;14672;50.250;8.312;2023-04-25T06:50:01;98289.16;;;11.22;59.67
27144;BME280;14672;50.250;8.312;2023-04-25T06:52:26;98287.03;;;11.31;59.34
27144;BME280;14672;50.250;8.312;2023-04-25T06:54:52;98288.63;;;11.32;59.73
27144;BME280;14672;50.250;8.312;2023-04-25T06:57:18;98293.97;;;11.40;59.30
27144;BME280;14672;50.250;8.312;2023-04-25T06:59:44;98297.47;;;11.35;59.14
27144;BME280;14672;50.250;8.312;2023-04-25T07:02:10;98303.44;;;11.46;58.46
27144;BME280;14672;50.250;8.312;2023-04-25T07:04:35;98300.72;;;11.51;58.90
27144;BME280;14672;50.250;8.312;2023-04-25T07:07:01;98303.09;;;11.53;58.74
27144;BME280;14672;50.250;8.312;2023-04-25T07:09:29;98297.88;;;11.51;58.98
27144;BME280;14672;50.250;8.312;2023-04-25T07:11:55;98302.03;;;11.50;58.53
27144;BME280;14672;50.250;8.312;2023-04-25T07:14:22;98310.84;;;11.52;58.69
27144;BME280;14672;50.250;8.312;2023-04-25T07:16:48;98307.19;;;11.61;58.29
27144;BME280;14672;50.250;8.312;2023-04-25T07:19:13;98301.06;;;11.53;58.32
27144;BME280;14672;50.250;8.312;2023-04-25T07:21:39;98308.78;;;11.62;57.95
27144;BME280;14672;50.250;8.312;2023-04-25T07:24:05;98309.06;;;11.64;58.16
27144;BME280;14672;50.250;8.312;2023-04-25T07:26:32;98312.25;;;11.66;58.02
27144;BME280;14672;50.250;8.312;2023-04-25T07:28:58;98314.13;;;11.78;58.32
27144;BME280;14672;50.250;8.312;2023-04-25T07:31:24;98315.06;;;11.75;58.50
27144;BME280;14672;50.250;8.312;2023-04-25T07:33:50;98315.00;;;11.93;58.08
27144;BME280;14672;50.250;8.312;2023-04-25T07:36:16;98312.25;;;11.99;57.88
27144;BME280;14672;50.250;8.312;2023-04-25T07:38:42;98317.94;;;11.99;57.51
27144;BME280;14672;50.250;8.312;2023-04-25T07:41:07;98309.03;;;11.82;57.54
27144;BME280;14672;50.250;8.312;2023-04-25T07:43:33;98313.59;;;11.89;57.15
27144;BME280;14672;50.250;8.312;2023-04-25T07:45:59;98312.34;;;11.81;57.36
27144;BME280;14672;50.250;8.312;2023-04-25T07:48:25;98315.59;;;11.97;57.03
27144;BME280;14672;50.250;8.312;2023-04-25T07:50:50;98320.16;;;12.04;57.35
27144;BME280;14672;50.250;8.312;2023-04-25T07:53:16;98318.66;;;12.17;56.92
27144;BME280;14672;50.250;8.312;2023-04-25T07:55:43;98323.81;;;11.95;56.23
27144;BME280;14672;50.250;8.312;2023-04-25T07:58:11;98327.22;;;12.17;56.56
27144;BME280;14672;50.250;8.312;2023-04-25T08:00:37;98333.81;;;12.23;56.33
27144;BME280;14672;50.250;8.312;2023-04-25T08:03:03;98324.38;;;12.41;56.01
27144;BME280;14672;50.250;8.312;2023-04-25T08:05:29;98338.59;;;12.17;56.09
27144;BME280;14672;50.250;8.312;2023-04-25T08:07:55;98340.63;;;12.26;55.22
27144;BME280;14672;50.250;8.312;2023-04-25T08:10:22;98336.91;;;12.35;55.36
27144;BME280;14672;50.250;8.312;2023-04-25T08:12:49;98347.69;;;12.31;55.03
27144;BME280;14672;50.250;8.312;2023-04-25T08:15:15;98352.00;;;12.26;55.59
27144;BME280;14672;50.250;8.312;2023-04-25T08:17:41;98360.91;;;12.43;55.12
27144;BME280;14672;50.250;8.312;2023-04-25T08:20:07;98359.22;;;12.36;54.64
27144;BME280;14672;50.250;8.312;2023-04-25T08:22:33;98363.88;;;12.24;54.71
27144;BME280;14672;50.250;8.312;2023-04-25T08:24:59;98365.75;;;12.28;54.63
27144;BME280;14672;50.250;8.312;2023-04-25T08:27:25;98366.78;;;12.39;54.48
27144;BME280;14672;50.250;8.312;2023-04-25T08:29:51;98378.13;;;12.48;54.21
27144;BME280;14672;50.250;8.312;2023-04-25T08:32:18;98368.97;;;12.44;52.97
27144;BME280;14672;50.250;8.312;2023-04-25T08:34:44;98369.47;;;12.66;52.51
27144;BME280;14672;50.250;8.312;2023-04-25T08:37:10;98374.13;;;12.55;51.85
27144;BME280;14672;50.250;8.312;2023-04-25T08:39:37;98377.41;;;12.62;52.14
27144;BME280;14672;50.250;8.312;2023-04-25T08:42:06;98384.31;;;12.70;52.70
27144;BME280;14672;50.250;8.312;2023-04-25T08:44:36;98382.81;;;12.84;52.45
27144;BME280;14672;50.250;8.312;2023-04-25T08:47:04;98383.03;;;12.95;52.57
27144;BME280;14672;50.250;8.312;2023-04-25T08:49:34;98391.34;;;13.08;52.19
27144;BME280;14672;50.250;8.312;2023-04-25T08:52:03;98386.63;;;13.05;52.68
27144;BME280;14672;50.250;8.312;2023-04-25T08:54:32;98385.81;;;13.04;51.81
27144;BME280;14672;50.250;8.312;2023-04-25T08:57:01;98393.88;;;13.06;50.35
27144;BME280;14672;50.250;8.312;2023-04-25T08:59:32;98391.19;;;13.11;49.57
27144;BME280;14672;50.250;8.312;2023-04-25T09:01:58;98392.09;;;13.18;49.22
27144;BME280;14672;50.250;8.312;2023-04-25T09:04:25;98396.03;;;13.20;51.02
27144;BME280;14672;50.250;8.312;2023-04-25T09:06:51;98401.06;;;13.25;51.75
27144;BME280;14672;50.250;8.312;2023-04-25T09:09:17;98410.22;;;13.05;52.65
27144;BME280;14672;50.250;8.312;2023-04-25T09:11:43;98397.69;;;13.27;51.66
27144;BME280;14672;50.250;8.312;2023-04-25T09:14:20;98397.69;;;13.27;50.84
27144;BME280;14672;50.250;8.312;2023-04-25T09:19:35;98407.38;;;13.44;48.92
27144;BME280;14672;50.250;8.312;2023-04-25T09:22:03;98404.72;;;13.70;49.69
27144;BME280;14672;50.250;8.312;2023-04-25T09:24:39;98410.56;;;13.60;48.94
27144;BME280;14672;50.250;8.312;2023-04-25T09:27:11;98410.56;;;13.60;48.15
27144;BME280;14672;50.250;8.312;2023-04-25T09:29:39;98412.94;;;13.77;47.83
27144;BME280;14672;50.250;8.312;2023-04-25T09:32:17;98412.34;;;13.73;48.07
27144;BME280;14672;50.250;8.312;2023-04-25T09:34:48;98415.59;;;13.80;47.81
27144;BME280;14672;50.250;8.312;2023-04-25T09:40:13;98421.19;;;13.89;47.99
27144;BME280;14672;50.250;8.312;2023-04-25T09:42:41;98432.72;;;13.80;48.42
27144;BME280;14672;50.250;8.312;2023-04-25T09:45:07;98426.28;;;13.71;47.42
27144;BME280;14672;50.250;8.312;2023-04-25T09:47:37;98423.75;;;13.87;47.79
27144;BME280;14672;50.250;8.312;2023-04-25T09:50:15;98434.19;;;13.90;46.04
27144;BME280;14672;50.250;8.312;2023-04-25T09:52:41;98437.34;;;13.92;46.21
27144;BME280;14672;50.250;8.312;2023-04-25T09:55:07;98433.97;;;13.94;45.97
27144;BME280;14672;50.250;8.312;2023-04-25T09:57:33;98438.22;;;13.98;46.20
27144;BME280;14672;50.250;8.312;2023-04-25T10:00:01;98448.06;;;13.83;45.75
27144;BME280;14672;50.250;8.312;2023-04-25T10:02:31;98435.75;;;13.77;45.27
27144;BME280;14672;50.250;8.312;2023-04-25T10:04:59;98454.88;;;13.85;45.71
27144;BME280;14672;50.250;8.312;2023-04-25T10:07:30;98452.97;;;13.82;45.58
27144;BME280;14672;50.250;8.312;2023-04-25T10:10:02;98449.44;;;13.87;45.40
27144;BME280;14672;50.250;8.312;2023-04-25T10:12:29;98454.75;;;13.94;46.20
27144;BME280;14672;50.250;8.312;2023-04-25T10:14:58;98458.41;;;13.95;46.09
27144;BME280;14672;50.250;8.312;2023-04-25T10:17:26;98456.84;;;14.08;45.89
27144;BME280;14672;50.250;8.312;2023-04-25T10:19:54;98455.75;;;13.91;45.44
27144;BME280;14672;50.250;8.312;2023-04-25T10:22:34;98454.69;;;14.03;46.01
27144;BME280;14672;50.250;8.312;2023-04-25T10:25:01;98474.13;;;13.61;46.09
27144;BME280;14672;50.250;8.312;2023-04-25T10:27:30;98474.75;;;13.80;46.73
27144;BME280;14672;50.250;8.312;2023-04-25T10:32:33;98478.84;;;13.64;47.33
27144;BME280;14672;50.250;8.312;2023-04-25T10:38:11;98489.41;;;13.73;47.52
27144;BME280;14672;50.250;8.312;2023-04-25T10:40:39;98490.47;;;13.60;47.27
27144;BME280;14672;50.250;8.312;2023-04-25T10:43:35;98488.69;;;13.63;46.03
27144;BME280;14672;50.250;8.312;2023-04-25T10:46:39;98493.59;;;13.62;45.48
27144;BME280;14672;50.250;8.312;2023-04-25T10:49:05;98489.94;;;13.47;45.06
27144;BME280;14672;50.250;8.312;2023-04-25T10:51:34;98490.41;;;13.46;44.89
27144;BME280;14672;50.250;8.312;2023-04-25T10:54:07;98490.84;;;13.53;45.50
27144;BME280;14672;50.250;8.312;2023-04-25T10:56:39;98492.72;;;13.56;45.65
27144;BME280;14672;50.250;8.312;2023-04-25T10:59:17;98485.75;;;13.57;45.42
27144;BME280;14672;50.250;8.312;2023-04-25T11:01:51;98492.00;;;13.47;45.52
27144;BME280;14672;50.250;8.312;2023-04-25T11:04:33;98492.47;;;13.69;46.12
27144;BME280;14672;50.250;8.312;2023-04-25T11:09:35;98497.59;;;13.94;45.75
27144;BME280;14672;50.250;8.312;2023-04-25T11:12:01;98484.81;;;14.19;45.66
27144;BME280;14672;50.250;8.312;2023-04-25T11:14:27;98496.06;;;14.37;45.72
27144;BME280;14672;50.250;8.312;2023-04-25T11:16:58;98489.16;;;14.44;45.65
27144;BME280;14672;50.250;8.312;2023-04-25T11:19:25;98490.63;;;14.54;44.58
27144;BME280;14672;50.250;8.312;2023-04-25T11:22:03;98490.94;;;14.56;42.73
27144;BME280;14672;50.250;8.312;2023-04-25T11:24:35;98489.25;;;14.64;43.99
27144;BME280;14672;50.250;8.312;2023-04-25T11:27:03;98495.50;;;14.83;43.57
27144;BME280;14672;50.250;8.312;2023-04-25T11:29:33;98491.59;;;15.00;43.29
27144;BME280;14672;50.250;8.312;2023-04-25T11:32:00;98488.66;;;14.95;42.42
27144;BME280;14672;50.250;8.312;2023-04-25T11:34:28;98494.63;;;15.12;42.59
27144;BME280;14672;50.250;8.312;2023-04-25T11:36:56;98489.25;;;14.99;42.21
27144;BME280;14672;50.250;8.312;2023-04-25T11:39:24;98497.69;;;15.08;42.92
27144;BME280;14672;50.250;8.312;2023-04-25T11:41:51;98502.16;;;14.94;42.68
27144;BME280;14672;50.250;8.312;2023-04-25T11:44:17;98505.31;;;14.47;42.63
27144;BME280;14672;50.250;8.312;2023-04-25T11:46:44;98511.63;;;14.51;43.17
27144;BME280;14672;50.250;8.312;2023-04-25T11:49:10;98512.41;;;14.51;42.82
27144;BME280;14672;50.250;8.312;2023-04-25T11:51:45;98514.78;;;14.53;43.38
27144;BME280;14672;50.250;8.312;2023-04-25T11:54:12;98520.75;;;14.26;43.76
27144;BME280;14672;50.250;8.312;2023-04-25T11:56:44;98525.88;;;14.22;44.14
27144;BME280;14672;50.250;8.312;2023-04-25T11:59:11;98524.78;;;14.34;44.40
27144;BME280;14672;50.250;8.312;2023-04-25T12:01:39;98518.31;;;14.19;44.16
27144;BME280;14672;50.250;8.312;2023-04-25T12:04:19;98520.69;;;14.20;44.61
27144;BME280;14672;50.250;8.312;2023-04-25T12:06:48;98536.16;;;14.28;44.85
27144;BME280;14672;50.250;8.312;2023-04-25T12:09:37;98527.66;;;14.19;44.80
27144;BME280;14672;50.250;8.312;2023-04-25T12:12:02;98529.91;;;14.30;44.60
27144;BME280;14672;50.250;8.312;2023-04-25T12:14:35;98525.00;;;14.16;44.61
27144;BME280;14672;50.250;8.312;2023-04-25T12:17:03;98526.59;;;14.17;43.87
27144;BME280;14672;50.250;8.312;2023-04-25T12:19:35;98520.28;;;14.13;43.55
27144;BME280;14672;50.250;8.312;2023-04-25T12:22:03;98519.88;;;14.34;43.79
27144;BME280;14672;50.250;8.312;2023-04-25T12:24:29;98520.06;;;14.31;43.86
27144;BME280;14672;50.250;8.312;2023-04-25T12:27:01;98520.50;;;14.38;43.57
27144;BME280;14672;50.250;8.312;2023-04-25T12:29:30;98527.00;;;14.53;44.11
27144;BME280;14672;50.250;8.312;2023-04-25T12:31:57;98523.47;;;14.44;42.37
27144;BME280;14672;50.250;8.312;2023-04-25T12:34:24;98518.50;;;14.30;42.77
27144;BME280;14672;50.250;8.312;2023-04-25T12:36:51;98531.59;;;14.22;43.09
27144;BME280;14672;50.250;8.312;2023-04-25T12:39:23;98520.09;;;14.60;42.19
27144;BME280;14672;50.250;8.312;2023-04-25T12:41:50;98539.41;;;14.65;42.54
27144;BME280;14672;50.250;8.312;2023-04-25T12:44:16;98540.19;;;14.66;42.50
27144;BME280;14672;50.250;8.312;2023-04-25T12:46:42;98538.16;;;14.37;43.02
27144;BME280;14672;50.250;8.312;2023-04-25T12:49:08;98541.38;;;14.59;42.23
27144;BME280;14672;50.250;8.312;2023-04-25T12:51:35;98547.31;;;14.41;42.28
27144;BME280;14672;50.250;8.312;2023-04-25T12:54:03;98552.34;;;14.61;42.68
27144;BME280;14672;50.250;8.312;2023-04-25T12:56:29;98544.84;;;14.63;42.26
27144;BME280;14672;50.250;8.312;2023-04-25T12:58:56;98546.13;;;14.47;41.29
27144;BME280;14672;50.250;8.312;2023-04-25T13:01:22;98546.28;;;14.29;40.56
27144;BME280;14672;50.250;8.312;2023-04-25T13:03:48;98541.28;;;14.39;41.10
27144;BME280;14672;50.250;8.312;2023-04-25T13:06:15;98556.97;;;14.43;41.87
27144;BME280;14672;50.250;8.312;2023-04-25T13:08:42;98548.75;;;14.22;40.88
27144;BME280;14672;50.250;8.312;2023-04-25T13:11:08;98545.31;;;14.32;41.66
27144;BME280;14672;50.250;8.312;2023-04-25T13:13:34;98559.88;;;14.34;40.99